KUOX/UOX METAR and TAF weather

Enter ICAO airport designator
Station Type Date Time Source
KUOX METAR 2018/12/11 18:15 UTC NOAA

KUOX 111815Z AUTO VRB06KT 10SM CLR 08/M06 A3035 RMK AO2


Station Type Date Time Source
KUOX Decoded METAR 2018/12/11 18:15 UTC NOAA

Oxford, University-Oxford Airport, MS, United States (KUOX) 34-23-04N 089-32-08W
Dec 11, 2018 - 01:15 PM EST / 2018.12.11 1815 UTC
Wind: Variable at 7 MPH (6 KT):0
Visibility: 10 mile(s):0
Sky conditions: clear
Temperature: 46 F (8 C)
Dew Point: 21 F (-6 C)
Relative Humidity: 36%
Pressure (altimeter): 30.35 in. Hg (1027 hPa)
ob: KUOX 111815Z AUTO VRB06KT 10SM CLR 08/M06 A3035 RMK AO2
cycle: 18

Station Type Date Time Source
KUOX TAF UTC NOAA

Error!


Example: see airport list